Time;durP1;ratioP1;P1;durP2;ratioP2;P2;SDS_P1;SDS_P2;PMS_P1;PMS_P2;Temp;Humidity;BMP_temperature;BMP_pressure;BME280_temperature;BME280_humidity;BME280_pressure;Samples;Min_cycle;Max_cycle;Signal;HPM_P1;HPM_P2
2022/01/24 00:02:53;;;;;;;20.93;7.30;;;;;;;;;;10355607;28;20057;-74
2022/01/24 00:07:58;;;;;;;12.98;4.93;;;;;;;;;;10357971;28;20071;-74
2022/01/24 00:13:25;;;;;;;;;;;;;;;;;;10348579;28;20038;-74
2022/01/24 00:26:40;;;;;;;20.63;7.13;;;;;;;;;;10339665;28;20393;-72
2022/01/24 00:29:16;;;;;;;19.93;7.20;;;;;;;;;;10354864;28;20153;-73
2022/01/24 00:34:19;;;;;;;14.32;4.78;;;;;;;;;;10345375;28;20069;-72
2022/01/24 00:39:25;;;;;;;15.82;5.93;;;;;;;;;;10362662;28;20429;-74
2022/01/24 00:53:00;;;;;;;17.70;6.23;;;;;;;;;;10355467;28;20615;-73
2022/01/24 00:55:19;;;;;;;;;;;;;;;;;;10350288;28;20034;-73
2022/01/24 01:00:24;;;;;;;17.83;6.37;;;;;;;;;;10365560;28;20011;-75
2022/01/24 01:05:39;;;;;;;16.60;6.43;;;;;;;;;;10363129;28;20274;-74
2022/01/24 01:21:27;;;;;;;23.53;7.00;;;;;;;;;;10347074;28;20044;-75
2022/01/24 01:26:34;;;;;;;11.73;5.03;;;;;;;;;;10361447;28;20038;-75
2022/01/24 01:31:46;;;;;;;22.30;8.07;;;;;;;;;;10363757;28;20033;-72
2022/01/24 01:37:26;;;;;;;14.97;5.20;;;;;;;;;;10363083;28;20040;-73
2022/01/24 01:53:30;;;;;;;22.07;8.10;;;;;;;;;;10347358;28;20038;-72
2022/01/24 01:58:34;;;;;;;20.23;6.50;;;;;;;;;;10357611;28;20040;-73
2022/01/24 02:03:41;;;;;;;20.67;8.03;;;;;;;;;;10359926;28;20033;-71
2022/01/24 02:08:44;;;;;;;20.47;7.10;;;;;;;;;;10347790;28;20044;-73
2022/01/24 02:13:49;;;;;;;21.07;7.00;;;;;;;;;;10357019;28;20112;-74
2022/01/24 02:19:06;;;;;;;22.30;6.93;;;;;;;;;;10360802;28;20104;-73
2022/01/24 02:24:14;;;;;;;22.87;7.17;;;;;;;;;;10359386;28;20117;-74
2022/01/24 02:29:41;;;;;;;21.23;7.68;;;;;;;;;;10357255;28;20069;-74
2022/01/24 02:34:57;;;;;;;24.67;7.93;;;;;;;;;;10359075;28;20050;-74
2022/01/24 02:40:10;;;;;;;21.80;7.23;;;;;;;;;;10360948;28;20068;-74
2022/01/24 02:55:53;;;;;;;15.43;6.37;;;;;;;;;;10357340;28;20065;-75
2022/01/24 03:00:57;;;;;;;24.47;7.67;;;;;;;;;;10356710;28;20057;-73
2022/01/24 03:06:00;;;;;;;;;;;;;;;;;;10356644;28;20133;-72
2022/01/24 03:11:06;;;;;;;7.20;2.83;;;;;;;;;;10353920;28;20711;-73
2022/01/24 03:16:09;;;;;;;20.97;7.97;;;;;;;;;;10361878;28;20123;-74
2022/01/24 03:21:12;;;;;;;19.17;5.97;;;;;;;;;;10353894;28;20340;-72
2022/01/24 03:26:17;;;;;;;11.73;3.53;;;;;;;;;;10339735;28;20076;-71
2022/01/24 03:31:20;;;;;;;20.67;7.27;;;;;;;;;;10355419;28;20034;-73
2022/01/24 03:36:23;;;;;;;21.77;6.70;;;;;;;;;;10357698;28;20040;-73
2022/01/24 03:41:27;;;;;;;10.80;3.10;;;;;;;;;;10357346;28;20494;-73
2022/01/24 03:46:46;;;;;;;;;;;;;;;;;;10359008;28;20095;-74
2022/01/24 03:51:49;;;;;;;14.63;5.53;;;;;;;;;;10344595;28;20255;-73
2022/01/24 03:56:56;;;;;;;23.83;7.33;;;;;;;;;;10355314;28;20038;-73
2022/01/24 04:01:59;;;;;;;;;;;;;;;;;;10353757;28;20772;-74
2022/01/24 04:07:04;;;;;;;25.10;8.50;;;;;;;;;;10353115;28;20261;-74
2022/01/24 04:12:09;;;;;;;22.60;7.37;;;;;;;;;;10352179;28;20129;-74
2022/01/24 04:17:24;;;;;;;9.17;2.77;;;;;;;;;;10354578;28;20444;-74
2022/01/24 04:22:32;;;;;;;21.40;7.77;;;;;;;;;;10356709;28;20512;-73
2022/01/24 04:27:40;;;;;;;19.70;6.60;;;;;;;;;;10343136;28;20564;-72
2022/01/24 04:32:43;;;;;;;21.23;7.00;;;;;;;;;;10355591;28;20037;-71
2022/01/24 04:37:46;;;;;;;21.47;7.70;;;;;;;;;;10357734;28;20034;-74
2022/01/24 04:43:00;;;;;;;10.30;4.93;;;;;;;;;;10352027;28;20648;-71
2022/01/24 04:53:44;;;;;;;20.67;7.63;;;;;;;;;;10354139;28;20034;-73
2022/01/24 04:58:48;;;;;;;11.83;4.80;;;;;;;;;;10356196;28;20034;-72
2022/01/24 05:03:52;;;;;;;18.03;6.57;;;;;;;;;;10354996;28;20128;-74
2022/01/24 05:08:55;;;;;;;9.70;3.90;;;;;;;;;;10341967;28;20172;-74
2022/01/24 05:24:42;;;;;;;24.40;7.93;;;;;;;;;;10358074;28;20037;-72
2022/01/24 05:29:46;;;;;;;23.30;8.17;;;;;;;;;;10362055;28;20030;-73
2022/01/24 05:34:49;;;;;;;23.53;7.50;;;;;;;;;;10363541;28;20142;-73
2022/01/24 05:39:52;;;;;;;22.10;6.70;;;;;;;;;;10360159;28;20152;-75
2022/01/24 05:45:00;;;;;;;11.97;4.67;;;;;;;;;;10360649;28;20044;-74
2022/01/24 05:50:03;;;;;;;11.47;3.83;;;;;;;;;;10359772;28;20073;-72
2022/01/24 05:55:07;;;;;;;8.73;2.50;;;;;;;;;;10345792;28;20044;-73
2022/01/24 06:00:13;;;;;;;24.65;7.63;;;;;;;;;;10346958;28;20096;-74
2022/01/24 06:05:16;;;;;;;14.63;5.97;;;;;;;;;;10358188;28;20037;-71
2022/01/24 06:10:19;;;;;;;11.57;5.13;;;;;;;;;;10356829;28;20125;-72
2022/01/24 06:15:24;;;;;;;10.80;4.70;;;;;;;;;;10362201;28;20026;-72
2022/01/24 06:20:26;;;;;;;;;;;;;;;;;;10353985;28;20037;-74
2022/01/24 06:25:32;;;;;;;20.43;6.27;;;;;;;;;;10424105;23;19997;-77
2022/01/24 06:30:37;;;;;;;17.83;5.97;;;;;;;;;;10405140;28;20488;-78
2022/01/24 06:35:39;;;;;;;;;;;;;;;;;;10413449;28;20109;-77
2022/01/24 06:40:42;;;;;;;11.40;4.37;;;;;;;;;;10410265;28;19933;-78
2022/01/24 06:45:47;;;;;;;7.47;3.20;;;;;;;;;;10393408;28;20175;-76
2022/01/24 06:50:50;;;;;;;20.40;7.17;;;;;;;;;;10390296;28;20187;-76
2022/01/24 06:55:53;;;;;;;20.83;4.95;;;;;;;;;;10426378;28;20033;-81
2022/01/24 07:00:58;;;;;;;18.20;7.13;;;;;;;;;;10406314;28;20041;-80
2022/01/24 07:06:02;;;;;;;16.50;6.23;;;;;;;;;;10423617;28;20099;-77
2022/01/24 07:11:06;;;;;;;9.90;4.68;;;;;;;;;;10421644;28;20038;-78
2022/01/24 07:16:09;;;;;;;;;;;;;;;;;;10424050;28;20119;-79
2022/01/24 07:21:14;;;;;;;10.00;2.87;;;;;;;;;;10413630;28;20485;-77
2022/01/24 07:26:16;;;;;;;;;;;;;;;;;;10396340;28;20041;-76
2022/01/24 07:31:19;;;;;;;8.90;3.47;;;;;;;;;;10398791;28;19976;-75
2022/01/24 07:36:24;;;;;;;10.93;4.47;;;;;;;;;;10406902;28;20042;-77
2022/01/24 07:41:29;;;;;;;21.77;6.77;;;;;;;;;;10400672;28;20114;-76
2022/01/24 07:46:35;;;;;;;13.07;4.60;;;;;;;;;;10390725;28;20038;-77
2022/01/24 07:51:39;;;;;;;;;;;;;;;;;;10404369;28;20035;-78
2022/01/24 07:56:43;;;;;;;8.07;3.13;;;;;;;;;;10409735;28;19917;-77
2022/01/24 08:01:46;;;;;;;;;;;;;;;;;;10405208;28;20546;-76
2022/01/24 08:06:49;;;;;;;18.90;6.37;;;;;;;;;;10408743;28;19925;-76
2022/01/24 08:11:54;;;;;;;20.50;7.15;;;;;;;;;;10416892;28;20164;-76
2022/01/24 08:16:57;;;;;;;17.57;5.10;;;;;;;;;;10418775;28;20124;-78
2022/01/24 08:22:00;;;;;;;9.10;3.43;;;;;;;;;;10419761;28;20046;-77
2022/01/24 08:27:10;;;;;;;19.63;6.13;;;;;;;;;;10422624;28;20063;-76
2022/01/24 08:32:13;;;;;;;18.47;5.97;;;;;;;;;;10423605;28;20038;-78
2022/01/24 08:37:16;;;;;;;3.80;2.00;;;;;;;;;;10403393;28;20509;-77
2022/01/24 08:42:28;;;;;;;9.23;4.40;;;;;;;;;;10404625;28;20044;-76
2022/01/24 08:47:32;;;;;;;30.87;8.70;;;;;;;;;;10398776;28;20571;-75
2022/01/24 08:52:46;;;;;;;11.73;3.17;;;;;;;;;;10398743;28;20037;-76
2022/01/24 08:57:52;;;;;;;30.63;9.00;;;;;;;;;;10399806;28;20286;-77
2022/01/24 09:02:55;;;;;;;28.13;7.23;;;;;;;;;;10398781;28;20125;-77
2022/01/24 09:07:58;;;;;;;29.80;8.45;;;;;;;;;;10422400;28;20037;-78
2022/01/24 09:13:03;;;;;;;28.97;8.23;;;;;;;;;;10420950;28;20053;-79
2022/01/24 09:18:06;;;;;;;28.67;7.17;;;;;;;;;;10421887;28;20037;-79
2022/01/24 09:23:09;;;;;;;19.50;4.60;;;;;;;;;;10423793;28;20080;-77
2022/01/24 09:28:14;;;;;;;25.73;7.00;;;;;;;;;;10435000;28;20109;-77
2022/01/24 09:33:20;;;;;;;12.50;5.13;;;;;;;;;;10410535;28;20042;-77
2022/01/24 09:38:29;;;;;;;20.73;5.23;;;;;;;;;;10430644;28;20038;-77
2022/01/24 09:43:33;;;;;;;21.40;5.80;;;;;;;;;;10433951;28;20045;-78
2022/01/24 09:48:38;;;;;;;19.17;5.53;;;;;;;;;;10429874;28;20074;-77
2022/01/24 09:53:41;;;;;;;18.30;6.10;;;;;;;;;;10437010;28;20041;-78
2022/01/24 09:58:45;;;;;;;14.37;4.87;;;;;;;;;;10439255;28;20021;-76
2022/01/24 10:04:06;;;;;;;15.40;4.97;;;;;;;;;;10426745;28;20037;-78
2022/01/24 10:09:09;;;;;;;18.77;5.97;;;;;;;;;;10396649;28;20034;-80
2022/01/24 10:19:54;;;;;;;17.30;6.03;;;;;;;;;;10409554;28;20315;-80
2022/01/24 10:24:57;;;;;;;20.73;6.30;;;;;;;;;;10411190;28;20038;-79
2022/01/24 10:30:03;;;;;;;12.63;3.57;;;;;;;;;;10388312;28;20107;-81
2022/01/24 10:35:23;;;;;;;15.23;5.17;;;;;;;;;;10400938;28;20073;-79
2022/01/24 10:40:37;;;;;;;18.20;5.90;;;;;;;;;;10409872;28;20056;-79
2022/01/24 10:45:45;;;;;;;18.52;6.22;;;;;;;;;;10409457;28;20567;-79
2022/01/24 10:50:48;;;;;;;20.83;7.22;;;;;;;;;;10407545;28;20080;-79
2022/01/24 10:55:51;;;;;;;18.60;7.35;;;;;;;;;;10414179;28;20041;-77
2022/01/24 11:00:56;;;;;;;23.40;7.30;;;;;;;;;;10398789;28;20121;-78
2022/01/24 11:05:59;;;;;;;20.35;7.05;;;;;;;;;;10424103;28;20037;-78
2022/01/24 11:11:05;;;;;;;19.02;7.05;;;;;;;;;;10416705;28;20034;-78
2022/01/24 11:16:09;;;;;;;22.95;6.88;;;;;;;;;;10423681;28;20121;-78
2022/01/24 11:21:13;;;;;;;21.73;6.88;;;;;;;;;;10413707;28;20046;-76
2022/01/24 11:26:16;;;;;;;22.05;7.35;;;;;;;;;;10409315;28;20049;-79
2022/01/24 11:31:24;;;;;;;21.60;7.37;;;;;;;;;;10415403;28;20046;-80
2022/01/24 11:36:35;;;;;;;21.08;7.15;;;;;;;;;;10421370;28;20042;-77
2022/01/24 11:41:40;;;;;;;20.50;7.45;;;;;;;;;;10422239;28;20030;-79
2022/01/24 11:46:47;;;;;;;25.02;9.45;;;;;;;;;;10425401;28;20061;-79
2022/01/24 11:51:52;;;;;;;18.08;6.90;;;;;;;;;;10427108;28;20490;-78
2022/01/24 11:57:10;;;;;;;22.33;7.32;;;;;;;;;;10429269;28;20102;-78
2022/01/24 12:02:16;;;;;;;16.55;6.57;;;;;;;;;;10419121;28;20030;-78
2022/01/24 12:07:20;;;;;;;25.00;7.80;;;;;;;;;;10402185;28;20049;-78
2022/01/24 12:12:47;;;;;;;23.33;7.55;;;;;;;;;;10412634;28;20037;-77
2022/01/24 12:17:57;;;;;;;39.45;8.90;;;;;;;;;;10411960;28;20033;-79
2022/01/24 12:23:21;;;;;;;50.17;10.25;;;;;;;;;;10404787;28;20033;-79
2022/01/24 12:28:48;;;;;;;25.92;8.50;;;;;;;;;;10405373;28;20045;-79
2022/01/24 12:34:12;;;;;;;108.07;12.52;;;;;;;;;;10410316;28;20095;-79
2022/01/24 12:39:16;;;;;;;85.95;11.48;;;;;;;;;;10418524;28;20671;-78
2022/01/24 12:49:37;;;;;;;25.58;7.88;;;;;;;;;;10404668;28;19936;-78
2022/01/24 12:54:42;;;;;;;19.42;8.50;;;;;;;;;;10427389;28;20048;-77
2022/01/24 12:59:52;;;;;;;52.42;10.45;;;;;;;;;;10404054;28;20041;-75
2022/01/24 13:05:04;;;;;;;119.28;14.27;;;;;;;;;;10428056;28;20072;-77
2022/01/24 13:10:09;;;;;;;93.35;13.18;;;;;;;;;;10419498;28;20124;-77
2022/01/24 13:15:26;;;;;;;32.88;10.00;;;;;;;;;;10415227;28;20049;-79
2022/01/24 13:26:00;;;;;;;26.80;9.25;;;;;;;;;;10422694;28;20041;-77
2022/01/24 13:31:04;;;;;;;29.33;10.17;;;;;;;;;;10417994;28;20038;-78
2022/01/24 13:36:09;;;;;;;20.13;9.15;;;;;;;;;;10425935;28;20288;-79
2022/01/24 13:41:13;;;;;;;22.95;9.65;;;;;;;;;;10430908;28;20057;-77
2022/01/24 13:46:18;;;;;;;23.65;9.00;;;;;;;;;;10442124;28;20080;-77
2022/01/24 13:51:34;;;;;;;23.83;9.25;;;;;;;;;;10455613;28;20056;-78
2022/01/24 13:56:41;;;;;;;30.15;10.45;;;;;;;;;;10437010;28;20034;-78
2022/01/24 14:01:51;;;;;;;23.63;9.10;;;;;;;;;;10424565;28;20037;-79
2022/01/24 14:06:57;;;;;;;23.50;9.05;;;;;;;;;;10420078;28;21399;-77
2022/01/24 14:12:00;;;;;;;27.02;9.35;;;;;;;;;;10414904;28;20156;-77
2022/01/24 14:17:17;;;;;;;25.55;9.40;;;;;;;;;;10408723;28;20793;-78
2022/01/24 14:22:21;;;;;;;21.85;7.85;;;;;;;;;;10414150;28;20033;-77
2022/01/24 14:27:38;;;;;;;27.92;8.57;;;;;;;;;;10418173;28;20461;-78
2022/01/24 14:33:03;;;;;;;20.73;7.53;;;;;;;;;;10423373;28;20056;-77
2022/01/24 14:38:08;;;;;;;23.15;7.35;;;;;;;;;;10414144;28;20438;-77
2022/01/24 14:48:32;;;;;;;21.90;8.33;;;;;;;;;;10407721;28;20038;-76
2022/01/24 14:53:37;;;;;;;20.58;8.23;;;;;;;;;;10418128;28;20121;-77
2022/01/24 14:58:41;;;;;;;21.53;7.93;;;;;;;;;;10423134;28;20529;-77
2022/01/24 15:03:47;;;;;;;22.07;8.30;;;;;;;;;;10419793;28;20033;-77
2022/01/24 15:08:52;;;;;;;22.80;7.47;;;;;;;;;;10414592;28;20045;-78
2022/01/24 15:13:59;;;;;;;27.07;8.83;;;;;;;;;;10416624;28;20052;-77
2022/01/24 15:24:38;;;;;;;27.43;9.30;;;;;;;;;;10410078;28;20509;-77
2022/01/24 15:29:44;;;;;;;26.65;9.00;;;;;;;;;;10402083;28;20084;-77
2022/01/24 15:35:09;;;;;;;22.83;7.90;;;;;;;;;;10410703;28;20045;-77
2022/01/24 15:40:15;;;;;;;25.55;8.07;;;;;;;;;;10407664;28;20044;-77
2022/01/24 15:45:40;;;;;;;22.30;7.50;;;;;;;;;;10397871;28;20088;-77
2022/01/24 15:50:44;;;;;;;24.27;8.23;;;;;;;;;;10401012;28;20041;-79
2022/01/24 15:56:13;;;;;;;25.25;7.32;;;;;;;;;;10402803;28;20140;-79
2022/01/24 16:01:16;;;;;;;22.20;7.83;;;;;;;;;;10412293;28;20126;-78
2022/01/24 16:06:19;;;;;;;13.63;5.27;;;;;;;;;;10413756;28;20041;-80
2022/01/24 16:11:24;;;;;;;22.90;8.23;;;;;;;;;;10414936;28;20097;-78
2022/01/24 16:16:49;;;;;;;28.33;8.83;;;;;;;;;;10408929;28;20072;-79
2022/01/24 16:22:02;;;;;;;9.90;4.53;;;;;;;;;;10421067;28;20069;-79
2022/01/24 16:27:27;;;;;;;18.87;7.57;;;;;;;;;;10403098;28;20045;-81
2022/01/24 16:32:30;;;;;;;24.02;7.97;;;;;;;;;;10411902;28;20041;-81
2022/01/24 16:37:35;;;;;;;13.77;5.87;;;;;;;;;;10414903;28;20042;-79
2022/01/24 16:42:55;;;;;;;19.90;8.07;;;;;;;;;;10397353;28;20114;-79
2022/01/24 16:47:58;;;;;;;17.67;7.57;;;;;;;;;;10411562;28;20049;-80
2022/01/24 16:53:01;;;;;;;18.70;6.90;;;;;;;;;;10418453;28;20592;-84
2022/01/24 16:58:06;;;;;;;14.68;5.13;;;;;;;;;;10420564;28;20045;-79
2022/01/24 17:03:09;;;;;;;18.00;5.63;;;;;;;;;;10410085;28;20167;-77
2022/01/24 17:08:15;;;;;;;20.83;7.43;;;;;;;;;;10422231;28;20497;-77
2022/01/24 17:13:20;;;;;;;15.77;5.43;;;;;;;;;;10413797;28;20371;-78
2022/01/24 17:18:24;;;;;;;24.30;10.53;;;;;;;;;;10406913;28;20087;-79
2022/01/24 17:23:28;;;;;;;22.80;7.40;;;;;;;;;;10453952;28;20571;-78
2022/01/24 17:28:32;;;;;;;15.18;4.93;;;;;;;;;;10432409;28;20147;-79
2022/01/24 17:33:36;;;;;;;33.50;8.00;;;;;;;;;;10423889;28;20466;-79
2022/01/24 17:38:39;;;;;;;8.80;3.60;;;;;;;;;;10423346;28;20131;-79
2022/01/24 17:43:44;;;;;;;21.17;7.53;;;;;;;;;;10427309;28;20025;-79
2022/01/24 17:48:47;;;;;;;28.23;8.87;;;;;;;;;;10425780;28;20061;-79
2022/01/24 17:53:50;;;;;;;33.97;9.67;;;;;;;;;;10424000;28;20452;-80
2022/01/24 17:58:55;;;;;;;25.67;8.43;;;;;;;;;;10428182;28;20402;-78
2022/01/24 18:03:59;;;;;;;11.73;4.50;;;;;;;;;;10408619;28;20039;-78
2022/01/24 18:09:03;;;;;;;22.07;6.93;;;;;;;;;;10420111;28;20056;-79
2022/01/24 18:14:07;;;;;;;31.95;10.82;;;;;;;;;;10413256;28;20124;-77
2022/01/24 18:19:10;;;;;;;;;;;;;;;;;;10415089;28;20049;-78
2022/01/24 18:24:12;;;;;;;15.63;5.70;;;;;;;;;;10422659;28;19921;-77
2022/01/24 18:29:17;;;;;;;27.53;8.60;;;;;;;;;;10428197;28;20037;-79
2022/01/24 18:34:20;;;;;;;27.17;8.17;;;;;;;;;;10424746;28;20040;-77
2022/01/24 18:39:27;;;;;;;12.33;4.43;;;;;;;;;;10433210;28;20038;-81
2022/01/24 18:44:36;;;;;;;22.60;8.40;;;;;;;;;;10424612;28;20033;-79
2022/01/24 18:49:39;;;;;;;11.83;5.50;;;;;;;;;;10407976;28;20560;-79
2022/01/24 18:54:43;;;;;;;28.67;9.68;;;;;;;;;;10387523;28;20103;-82
2022/01/24 18:59:47;;;;;;;40.87;14.80;;;;;;;;;;10405637;28;20143;-79
2022/01/24 19:04:51;;;;;;;23.67;8.50;;;;;;;;;;10416202;28;20045;-78
2022/01/24 19:09:54;;;;;;;31.90;10.57;;;;;;;;;;10414592;28;20765;-79
2022/01/24 19:15:00;;;;;;;27.67;10.53;;;;;;;;;;10414086;28;20041;-79
2022/01/24 19:23:09;;;;;;;10.43;3.87;;;;;;;;;;10411422;28;20044;-81
2022/01/24 19:25:27;;;;;;;32.03;10.47;;;;;;;;;;10396753;28;20540;-81
2022/01/24 19:30:31;;;;;;;29.87;9.73;;;;;;;;;;10405067;28;20091;-80
2022/01/24 19:35:34;;;;;;;31.63;11.37;;;;;;;;;;10421823;28;20036;-82
2022/01/24 19:40:37;;;;;;;24.83;10.23;;;;;;;;;;10420711;28;20133;-80
2022/01/24 19:45:43;;;;;;;32.25;8.30;;;;;;;;;;10401570;28;20037;-74
2022/01/24 19:50:46;;;;;;;27.30;8.63;;;;;;;;;;10383840;28;20052;-75
2022/01/24 19:55:55;;;;;;;19.50;6.93;;;;;;;;;;10399249;28;20132;-74
2022/01/24 20:01:03;;;;;;;26.70;10.90;;;;;;;;;;10398570;28;20053;-76
2022/01/24 20:06:07;;;;;;;22.13;7.17;;;;;;;;;;10423539;23;20048;-76
2022/01/24 20:11:09;;;;;;;22.20;7.17;;;;;;;;;;10441193;28;20029;-74
2022/01/24 20:16:15;;;;;;;16.20;6.47;;;;;;;;;;10443943;28;20134;-77
2022/01/24 20:21:18;;;;;;;29.57;8.90;;;;;;;;;;10662226;23;20052;-74
2022/01/24 20:26:22;;;;;;;20.52;8.23;;;;;;;;;;10436041;28;20055;-73
2022/01/24 20:31:26;;;;;;;22.80;6.57;;;;;;;;;;10434578;28;20029;-76
2022/01/24 20:36:29;;;;;;;16.77;5.60;;;;;;;;;;10430635;28;20033;-73
2022/01/24 20:41:32;;;;;;;16.13;6.40;;;;;;;;;;10434950;28;20046;-74
2022/01/24 20:46:37;;;;;;;23.30;8.50;;;;;;;;;;10448681;28;20463;-73
2022/01/24 20:51:42;;;;;;;25.00;9.40;;;;;;;;;;10415157;28;20033;-73
2022/01/24 20:56:46;;;;;;;41.10;14.73;;;;;;;;;;10434161;28;20063;-75
2022/01/24 21:01:51;;;;;;;21.52;8.43;;;;;;;;;;10430494;28;20040;-75
2022/01/24 21:06:54;;;;;;;26.20;8.53;;;;;;;;;;10455159;28;20033;-73
2022/01/24 21:12:05;;;;;;;14.67;4.70;;;;;;;;;;10443802;28;20028;-74
2022/01/24 21:17:11;;;;;;;39.70;12.13;;;;;;;;;;10449210;28;20367;-74
2022/01/24 21:22:14;;;;;;;33.77;10.10;;;;;;;;;;10456505;28;20040;-75
2022/01/24 21:27:18;;;;;;;26.80;8.32;;;;;;;;;;10466283;28;20033;-74
2022/01/24 21:32:22;;;;;;;30.90;8.90;;;;;;;;;;10450283;28;20029;-74
2022/01/24 21:37:28;;;;;;;36.73;11.03;;;;;;;;;;10469783;28;20037;-76
2022/01/24 21:42:31;;;;;;;21.73;6.77;;;;;;;;;;10466044;28;20065;-75
2022/01/24 21:47:36;;;;;;;37.53;12.37;;;;;;;;;;10451292;28;20517;-75
2022/01/24 21:52:48;;;;;;;18.47;5.47;;;;;;;;;;10465173;28;20303;-74
2022/01/24 21:57:52;;;;;;;23.35;6.75;;;;;;;;;;10456519;28;20079;-75
2022/01/24 22:02:55;;;;;;;;;;;;;;;;;;10451089;28;20029;-74
2022/01/24 22:13:22;;;;;;;27.17;8.10;;;;;;;;;;10443483;28;20050;-75
2022/01/24 22:18:25;;;;;;;21.10;7.63;;;;;;;;;;10442155;28;20254;-74
2022/01/24 22:23:37;;;;;;;28.97;9.30;;;;;;;;;;10445908;28;20107;-70
2022/01/24 22:28:41;;;;;;;10.37;3.57;;;;;;;;;;10425393;28;20382;-74
2022/01/24 22:33:45;;;;;;;7.33;2.13;;;;;;;;;;10442690;28;20037;-74
2022/01/24 22:38:50;;;;;;;24.17;6.28;;;;;;;;;;10446185;28;20041;-74
2022/01/24 22:43:54;;;;;;;30.93;7.63;;;;;;;;;;10438444;28;20041;-74
2022/01/24 22:48:58;;;;;;;29.13;9.32;;;;;;;;;;10444791;28;20515;-74
2022/01/24 22:54:03;;;;;;;15.52;4.78;;;;;;;;;;10443618;28;20034;-75
2022/01/24 22:59:06;;;;;;;10.47;3.30;;;;;;;;;;10447683;28;20374;-76
2022/01/24 23:04:09;;;;;;;29.23;8.40;;;;;;;;;;10446564;28;20071;-75
2022/01/24 23:09:40;;;;;;;30.93;8.67;;;;;;;;;;10429962;28;20053;-74
2022/01/24 23:20:06;;;;;;;36.07;8.80;;;;;;;;;;10425709;28;20045;-74
2022/01/24 23:25:13;;;;;;;18.85;6.07;;;;;;;;;;10444629;28;20041;-75
2022/01/24 23:30:20;;;;;;;19.63;5.80;;;;;;;;;;10443249;28;20440;-73
2022/01/24 23:41:01;;;;;;;25.40;7.27;;;;;;;;;;10446726;28;20041;-74
2022/01/24 23:46:04;;;;;;;11.07;3.13;;;;;;;;;;10445435;28;20045;-73
2022/01/24 23:51:08;;;;;;;28.20;7.40;;;;;;;;;;10425844;28;20072;-72
2022/01/24 23:56:14;;;;;;;26.47;8.57;;;;;;;;;;10445091;28;20082;-74
